sensor_id;sensor_type;location;lat;lon;timestamp;P1;durP1;ratioP1;P2;durP2;ratioP2
73841;SDS011;62184;52.006;5.924;2023-04-21T00:01:17;50.35;;;22.20;;
73841;SDS011;62184;52.006;5.924;2023-04-21T00:03:43;57.17;;;24.13;;
73841;SDS011;62184;52.006;5.924;2023-04-21T00:06:10;59.30;;;24.60;;
73841;SDS011;62184;52.006;5.924;2023-04-21T00:08:39;58.90;;;23.27;;
73841;SDS011;62184;52.006;5.924;2023-04-21T00:11:05;61.65;;;23.92;;
73841;SDS011;62184;52.006;5.924;2023-04-21T00:13:32;68.28;;;24.88;;
73841;SDS011;62184;52.006;5.924;2023-04-21T00:15:59;67.22;;;24.65;;
73841;SDS011;62184;52.006;5.924;2023-04-21T00:18:25;66.03;;;24.60;;
73841;SDS011;62184;52.006;5.924;2023-04-21T00:20:52;69.50;;;24.80;;
73841;SDS011;62184;52.006;5.924;2023-04-21T00:23:18;77.10;;;25.30;;
73841;SDS011;62184;52.006;5.924;2023-04-21T00:25:47;79.07;;;25.40;;
73841;SDS011;62184;52.006;5.924;2023-04-21T00:28:14;80.18;;;26.60;;
73841;SDS011;62184;52.006;5.924;2023-04-21T00:30:40;78.40;;;25.50;;
73841;SDS011;62184;52.006;5.924;2023-04-21T00:33:07;86.57;;;26.92;;
73841;SDS011;62184;52.006;5.924;2023-04-21T00:35:33;90.35;;;26.83;;
73841;SDS011;62184;52.006;5.924;2023-04-21T00:38:00;95.40;;;26.55;;
73841;SDS011;62184;52.006;5.924;2023-04-21T00:40:26;88.60;;;25.85;;
73841;SDS011;62184;52.006;5.924;2023-04-21T00:42:55;90.03;;;24.77;;
73841;SDS011;62184;52.006;5.924;2023-04-21T00:45:22;84.93;;;24.95;;
73841;SDS011;62184;52.006;5.924;2023-04-21T00:47:48;90.10;;;24.50;;
73841;SDS011;62184;52.006;5.924;2023-04-21T00:50:14;86.57;;;23.70;;
73841;SDS011;62184;52.006;5.924;2023-04-21T00:52:41;85.75;;;22.83;;
73841;SDS011;62184;52.006;5.924;2023-04-21T00:55:09;90.43;;;24.43;;
73841;SDS011;62184;52.006;5.924;2023-04-21T00:57:36;100.88;;;23.80;;
73841;SDS011;62184;52.006;5.924;2023-04-21T01:00:05;95.53;;;25.70;;
73841;SDS011;62184;52.006;5.924;2023-04-21T01:02:34;90.60;;;23.02;;
73841;SDS011;62184;52.006;5.924;2023-04-21T01:05:04;105.18;;;25.80;;
73841;SDS011;62184;52.006;5.924;2023-04-21T01:07:31;91.68;;;22.90;;
73841;SDS011;62184;52.006;5.924;2023-04-21T01:09:58;83.97;;;21.67;;
73841;SDS011;62184;52.006;5.924;2023-04-21T01:12:24;103.28;;;26.40;;
73841;SDS011;62184;52.006;5.924;2023-04-21T01:14:50;99.55;;;24.40;;
73841;SDS011;62184;52.006;5.924;2023-04-21T01:17:19;90.28;;;23.85;;
73841;SDS011;62184;52.006;5.924;2023-04-21T01:19:46;101.53;;;25.83;;
73841;SDS011;62184;52.006;5.924;2023-04-21T01:22:16;101.70;;;24.07;;
73841;SDS011;62184;52.006;5.924;2023-04-21T01:24:43;97.30;;;23.67;;
73841;SDS011;62184;52.006;5.924;2023-04-21T01:27:12;95.13;;;23.48;;
73841;SDS011;62184;52.006;5.924;2023-04-21T01:29:41;114.67;;;28.53;;
73841;SDS011;62184;52.006;5.924;2023-04-21T01:32:11;100.53;;;26.15;;
73841;SDS011;62184;52.006;5.924;2023-04-21T01:34:40;96.00;;;23.75;;
73841;SDS011;62184;52.006;5.924;2023-04-21T01:37:08;101.80;;;23.58;;
73841;SDS011;62184;52.006;5.924;2023-04-21T01:39:39;105.55;;;26.80;;
73841;SDS011;62184;52.006;5.924;2023-04-21T01:42:07;102.82;;;24.05;;
73841;SDS011;62184;52.006;5.924;2023-04-21T01:44:34;118.45;;;27.77;;
73841;SDS011;62184;52.006;5.924;2023-04-21T01:47:02;107.10;;;26.10;;
73841;SDS011;62184;52.006;5.924;2023-04-21T01:49:29;91.40;;;23.70;;
73841;SDS011;62184;52.006;5.924;2023-04-21T01:51:55;98.10;;;23.50;;
73841;SDS011;62184;52.006;5.924;2023-04-21T01:54:21;101.25;;;25.17;;
73841;SDS011;62184;52.006;5.924;2023-04-21T01:56:50;115.82;;;29.42;;
73841;SDS011;62184;52.006;5.924;2023-04-21T01:59:17;108.23;;;27.73;;
73841;SDS011;62184;52.006;5.924;2023-04-21T02:01:43;111.97;;;28.27;;
73841;SDS011;62184;52.006;5.924;2023-04-21T02:04:10;105.77;;;26.37;;
73841;SDS011;62184;52.006;5.924;2023-04-21T02:06:36;97.93;;;26.20;;
73841;SDS011;62184;52.006;5.924;2023-04-21T02:09:03;100.23;;;25.17;;
73841;SDS011;62184;52.006;5.924;2023-04-21T02:11:29;99.30;;;24.40;;
73841;SDS011;62184;52.006;5.924;2023-04-21T02:13:58;94.25;;;24.48;;
73841;SDS011;62184;52.006;5.924;2023-04-21T02:16:24;105.85;;;28.15;;
73841;SDS011;62184;52.006;5.924;2023-04-21T02:18:51;110.13;;;26.23;;
73841;SDS011;62184;52.006;5.924;2023-04-21T02:21:19;96.10;;;24.70;;
73841;SDS011;62184;52.006;5.924;2023-04-21T02:23:46;89.23;;;23.90;;
73841;SDS011;62184;52.006;5.924;2023-04-21T02:26:13;105.57;;;27.42;;
73841;SDS011;62184;52.006;5.924;2023-04-21T02:28:39;104.85;;;26.15;;
73841;SDS011;62184;52.006;5.924;2023-04-21T02:31:08;91.00;;;23.52;;
73841;SDS011;62184;52.006;5.924;2023-04-21T02:33:35;101.93;;;28.15;;
73841;SDS011;62184;52.006;5.924;2023-04-21T02:36:02;86.97;;;24.10;;
73841;SDS011;62184;52.006;5.924;2023-04-21T02:38:29;99.97;;;26.20;;
73841;SDS011;62184;52.006;5.924;2023-04-21T02:40:56;100.70;;;23.27;;
73841;SDS011;62184;52.006;5.924;2023-04-21T02:43:22;99.63;;;26.63;;
73841;SDS011;62184;52.006;5.924;2023-04-21T02:45:49;100.18;;;24.75;;
73841;SDS011;62184;52.006;5.924;2023-04-21T02:48:18;89.15;;;23.65;;
73841;SDS011;62184;52.006;5.924;2023-04-21T02:50:45;87.72;;;22.50;;
73841;SDS011;62184;52.006;5.924;2023-04-21T02:53:11;97.88;;;25.40;;
73841;SDS011;62184;52.006;5.924;2023-04-21T02:55:38;101.50;;;24.92;;
73841;SDS011;62184;52.006;5.924;2023-04-21T02:58:04;102.65;;;25.40;;
73841;SDS011;62184;52.006;5.924;2023-04-21T03:00:30;100.38;;;24.05;;
73841;SDS011;62184;52.006;5.924;2023-04-21T03:02:57;102.65;;;24.33;;
73841;SDS011;62184;52.006;5.924;2023-04-21T03:05:26;91.75;;;23.95;;
73841;SDS011;62184;52.006;5.924;2023-04-21T03:07:52;114.45;;;28.13;;
73841;SDS011;62184;52.006;5.924;2023-04-21T03:10:19;117.50;;;27.77;;
73841;SDS011;62184;52.006;5.924;2023-04-21T03:12:45;105.32;;;27.33;;
73841;SDS011;62184;52.006;5.924;2023-04-21T03:15:11;105.40;;;26.48;;
73841;SDS011;62184;52.006;5.924;2023-04-21T03:17:38;107.32;;;26.92;;
73841;SDS011;62184;52.006;5.924;2023-04-21T03:20:05;110.18;;;26.30;;
73841;SDS011;62184;52.006;5.924;2023-04-21T03:22:35;109.78;;;26.42;;
73841;SDS011;62184;52.006;5.924;2023-04-21T03:25:03;102.85;;;26.05;;
73841;SDS011;62184;52.006;5.924;2023-04-21T03:27:30;108.68;;;26.50;;
73841;SDS011;62184;52.006;5.924;2023-04-21T03:29:56;104.28;;;26.27;;
73841;SDS011;62184;52.006;5.924;2023-04-21T03:32:23;107.30;;;27.20;;
73841;SDS011;62184;52.006;5.924;2023-04-21T03:34:49;114.22;;;27.73;;
73841;SDS011;62184;52.006;5.924;2023-04-21T03:37:16;109.10;;;27.50;;
73841;SDS011;62184;52.006;5.924;2023-04-21T03:39:45;105.53;;;26.70;;
73841;SDS011;62184;52.006;5.924;2023-04-21T03:42:11;114.63;;;29.52;;
73841;SDS011;62184;52.006;5.924;2023-04-21T03:44:37;112.22;;;28.65;;
73841;SDS011;62184;52.006;5.924;2023-04-21T03:47:04;112.45;;;28.48;;
73841;SDS011;62184;52.006;5.924;2023-04-21T03:49:32;121.82;;;28.42;;
73841;SDS011;62184;52.006;5.924;2023-04-21T03:51:59;115.20;;;29.50;;
73841;SDS011;62184;52.006;5.924;2023-04-21T03:54:25;113.30;;;29.10;;
73841;SDS011;62184;52.006;5.924;2023-04-21T03:56:54;110.95;;;28.27;;
73841;SDS011;62184;52.006;5.924;2023-04-21T03:59:21;115.32;;;27.67;;
73841;SDS011;62184;52.006;5.924;2023-04-21T04:01:47;111.63;;;27.95;;
73841;SDS011;62184;52.006;5.924;2023-04-21T04:04:13;117.63;;;28.80;;
73841;SDS011;62184;52.006;5.924;2023-04-21T04:06:40;118.13;;;29.40;;
73841;SDS011;62184;52.006;5.924;2023-04-21T04:09:06;137.00;;;34.63;;
73841;SDS011;62184;52.006;5.924;2023-04-21T04:11:33;132.10;;;33.17;;
73841;SDS011;62184;52.006;5.924;2023-04-21T04:14:02;139.43;;;35.42;;
73841;SDS011;62184;52.006;5.924;2023-04-21T04:16:28;146.40;;;37.07;;
73841;SDS011;62184;52.006;5.924;2023-04-21T04:18:54;142.40;;;35.70;;
73841;SDS011;62184;52.006;5.924;2023-04-21T04:21:21;142.60;;;36.58;;
73841;SDS011;62184;52.006;5.924;2023-04-21T04:23:48;144.20;;;37.08;;
73841;SDS011;62184;52.006;5.924;2023-04-21T04:26:15;138.23;;;36.97;;
73841;SDS011;62184;52.006;5.924;2023-04-21T04:28:41;137.70;;;36.83;;
73841;SDS011;62184;52.006;5.924;2023-04-21T04:31:10;141.77;;;36.70;;
73841;SDS011;62184;52.006;5.924;2023-04-21T04:33:39;139.93;;;37.35;;
73841;SDS011;62184;52.006;5.924;2023-04-21T04:36:06;133.55;;;35.83;;
73841;SDS011;62184;52.006;5.924;2023-04-21T04:38:32;141.93;;;37.33;;
73841;SDS011;62184;52.006;5.924;2023-04-21T04:40:59;134.63;;;36.88;;
73841;SDS011;62184;52.006;5.924;2023-04-21T04:43:25;136.88;;;35.97;;
73841;SDS011;62184;52.006;5.924;2023-04-21T04:45:52;128.88;;;36.60;;
73841;SDS011;62184;52.006;5.924;2023-04-21T04:48:21;132.60;;;35.20;;
73841;SDS011;62184;52.006;5.924;2023-04-21T04:50:47;133.63;;;37.03;;
73841;SDS011;62184;52.006;5.924;2023-04-21T04:53:13;136.15;;;36.05;;
73841;SDS011;62184;52.006;5.924;2023-04-21T04:55:40;125.18;;;34.17;;
73841;SDS011;62184;52.006;5.924;2023-04-21T04:58:06;134.90;;;36.13;;
73841;SDS011;62184;52.006;5.924;2023-04-21T05:00:33;128.95;;;35.72;;
73841;SDS011;62184;52.006;5.924;2023-04-21T05:02:59;134.95;;;37.00;;
73841;SDS011;62184;52.006;5.924;2023-04-21T05:05:28;132.85;;;35.38;;
73841;SDS011;62184;52.006;5.924;2023-04-21T05:07:55;128.70;;;35.20;;
73841;SDS011;62184;52.006;5.924;2023-04-21T05:10:21;120.57;;;33.72;;
73841;SDS011;62184;52.006;5.924;2023-04-21T05:12:48;125.93;;;35.10;;
73841;SDS011;62184;52.006;5.924;2023-04-21T05:15:15;122.07;;;33.95;;
73841;SDS011;62184;52.006;5.924;2023-04-21T05:17:42;118.82;;;35.58;;
73841;SDS011;62184;52.006;5.924;2023-04-21T05:20:08;108.88;;;31.77;;
73841;SDS011;62184;52.006;5.924;2023-04-21T05:22:39;120.10;;;34.85;;
73841;SDS011;62184;52.006;5.924;2023-04-21T05:25:06;120.60;;;34.17;;
73841;SDS011;62184;52.006;5.924;2023-04-21T05:27:34;117.53;;;34.73;;
73841;SDS011;62184;52.006;5.924;2023-04-21T05:30:01;114.27;;;34.10;;
73841;SDS011;62184;52.006;5.924;2023-04-21T05:32:27;107.82;;;33.97;;
73841;SDS011;62184;52.006;5.924;2023-04-21T05:34:54;101.50;;;33.25;;
73841;SDS011;62184;52.006;5.924;2023-04-21T05:37:20;96.13;;;33.17;;
73841;SDS011;62184;52.006;5.924;2023-04-21T05:39:49;100.72;;;33.33;;
73841;SDS011;62184;52.006;5.924;2023-04-21T05:42:16;96.63;;;32.93;;
73841;SDS011;62184;52.006;5.924;2023-04-21T05:44:42;91.20;;;32.30;;
73841;SDS011;62184;52.006;5.924;2023-04-21T05:47:09;90.13;;;31.85;;
73841;SDS011;62184;52.006;5.924;2023-04-21T05:49:36;87.72;;;31.42;;
73841;SDS011;62184;52.006;5.924;2023-04-21T05:52:02;85.38;;;31.27;;
73841;SDS011;62184;52.006;5.924;2023-04-21T05:54:29;83.70;;;31.42;;
73841;SDS011;62184;52.006;5.924;2023-04-21T05:56:58;81.05;;;30.20;;
73841;SDS011;62184;52.006;5.924;2023-04-21T05:59:24;81.85;;;31.13;;
73841;SDS011;62184;52.006;5.924;2023-04-21T06:01:50;90.50;;;32.95;;
73841;SDS011;62184;52.006;5.924;2023-04-21T06:04:17;82.70;;;31.48;;
73841;SDS011;62184;52.006;5.924;2023-04-21T06:06:43;80.57;;;31.23;;
73841;SDS011;62184;52.006;5.924;2023-04-21T06:09:10;80.35;;;32.20;;
73841;SDS011;62184;52.006;5.924;2023-04-21T06:11:36;83.45;;;32.80;;
73841;SDS011;62184;52.006;5.924;2023-04-21T06:14:05;78.95;;;32.20;;
73841;SDS011;62184;52.006;5.924;2023-04-21T06:16:32;77.40;;;30.90;;
73841;SDS011;62184;52.006;5.924;2023-04-21T06:18:58;77.18;;;33.33;;
73841;SDS011;62184;52.006;5.924;2023-04-21T06:21:25;69.07;;;30.90;;
73841;SDS011;62184;52.006;5.924;2023-04-21T06:23:51;73.43;;;32.50;;
73841;SDS011;62184;52.006;5.924;2023-04-21T06:26:18;69.50;;;32.63;;
73841;SDS011;62184;52.006;5.924;2023-04-21T06:28:44;69.93;;;31.50;;
73841;SDS011;62184;52.006;5.924;2023-04-21T06:31:14;66.25;;;31.23;;
73841;SDS011;62184;52.006;5.924;2023-04-21T06:33:40;63.28;;;31.42;;
73841;SDS011;62184;52.006;5.924;2023-04-21T06:36:07;72.03;;;32.33;;
73841;SDS011;62184;52.006;5.924;2023-04-21T06:38:34;63.73;;;31.87;;
73841;SDS011;62184;52.006;5.924;2023-04-21T06:41:00;58.23;;;30.50;;
73841;SDS011;62184;52.006;5.924;2023-04-21T06:43:27;57.47;;;30.48;;
73841;SDS011;62184;52.006;5.924;2023-04-21T06:45:53;56.10;;;30.17;;
73841;SDS011;62184;52.006;5.924;2023-04-21T06:48:22;57.65;;;31.27;;
73841;SDS011;62184;52.006;5.924;2023-04-21T06:50:48;54.50;;;29.57;;
73841;SDS011;62184;52.006;5.924;2023-04-21T06:53:15;54.97;;;30.58;;
73841;SDS011;62184;52.006;5.924;2023-04-21T06:55:41;51.45;;;29.38;;
73841;SDS011;62184;52.006;5.924;2023-04-21T06:58:08;54.15;;;30.48;;
73841;SDS011;62184;52.006;5.924;2023-04-21T07:00:34;52.35;;;29.95;;
73841;SDS011;62184;52.006;5.924;2023-04-21T07:03:01;48.78;;;29.70;;
73841;SDS011;62184;52.006;5.924;2023-04-21T07:05:30;51.80;;;29.50;;
73841;SDS011;62184;52.006;5.924;2023-04-21T07:07:56;46.88;;;28.13;;
73841;SDS011;62184;52.006;5.924;2023-04-21T07:10:23;48.85;;;29.27;;
73841;SDS011;62184;52.006;5.924;2023-04-21T07:12:50;47.13;;;29.23;;
73841;SDS011;62184;52.006;5.924;2023-04-21T07:15:16;45.70;;;29.05;;
73841;SDS011;62184;52.006;5.924;2023-04-21T07:17:43;45.30;;;29.08;;
73841;SDS011;62184;52.006;5.924;2023-04-21T07:20:10;44.95;;;27.23;;
73841;SDS011;62184;52.006;5.924;2023-04-21T07:22:39;44.15;;;27.10;;
73841;SDS011;62184;52.006;5.924;2023-04-21T07:25:06;46.13;;;28.50;;
73841;SDS011;62184;52.006;5.924;2023-04-21T07:27:34;44.42;;;28.45;;
73841;SDS011;62184;52.006;5.924;2023-04-21T07:30:00;44.03;;;27.90;;
73841;SDS011;62184;52.006;5.924;2023-04-21T07:32:27;44.45;;;28.30;;
73841;SDS011;62184;52.006;5.924;2023-04-21T07:34:53;42.97;;;27.92;;
73841;SDS011;62184;52.006;5.924;2023-04-21T07:37:20;43.50;;;28.23;;
73841;SDS011;62184;52.006;5.924;2023-04-21T07:39:49;41.42;;;28.00;;
73841;SDS011;62184;52.006;5.924;2023-04-21T07:42:17;43.30;;;27.50;;
73841;SDS011;62184;52.006;5.924;2023-04-21T07:44:44;44.67;;;29.23;;
73841;SDS011;62184;52.006;5.924;2023-04-21T07:47:10;43.10;;;28.20;;
73841;SDS011;62184;52.006;5.924;2023-04-21T07:49:37;42.40;;;28.05;;
73841;SDS011;62184;52.006;5.924;2023-04-21T07:52:03;40.92;;;27.50;;
73841;SDS011;62184;52.006;5.924;2023-04-21T07:54:30;40.10;;;27.00;;
73841;SDS011;62184;52.006;5.924;2023-04-21T07:56:59;42.47;;;27.83;;
73841;SDS011;62184;52.006;5.924;2023-04-21T07:59:25;40.55;;;27.05;;
73841;SDS011;62184;52.006;5.924;2023-04-21T08:01:51;42.00;;;27.42;;
73841;SDS011;62184;52.006;5.924;2023-04-21T08:04:18;39.97;;;27.33;;
73841;SDS011;62184;52.006;5.924;2023-04-21T08:06:44;40.35;;;27.55;;
73841;SDS011;62184;52.006;5.924;2023-04-21T08:09:11;41.10;;;27.20;;
73841;SDS011;62184;52.006;5.924;2023-04-21T08:11:37;41.67;;;27.73;;
73841;SDS011;62184;52.006;5.924;2023-04-21T08:14:06;41.67;;;28.37;;
73841;SDS011;62184;52.006;5.924;2023-04-21T08:16:33;39.33;;;26.83;;
73841;SDS011;62184;52.006;5.924;2023-04-21T08:19:00;40.63;;;27.65;;
73841;SDS011;62184;52.006;5.924;2023-04-21T08:21:28;39.28;;;27.73;;
73841;SDS011;62184;52.006;5.924;2023-04-21T08:23:54;42.37;;;27.73;;
73841;SDS011;62184;52.006;5.924;2023-04-21T08:26:21;39.15;;;27.00;;
73841;SDS011;62184;52.006;5.924;2023-04-21T08:28:47;39.42;;;27.60;;
73841;SDS011;62184;52.006;5.924;2023-04-21T08:31:17;37.42;;;26.88;;
73841;SDS011;62184;52.006;5.924;2023-04-21T08:33:44;40.23;;;27.03;;
73841;SDS011;62184;52.006;5.924;2023-04-21T08:36:10;39.72;;;26.35;;
73841;SDS011;62184;52.006;5.924;2023-04-21T08:38:37;37.78;;;26.50;;
73841;SDS011;62184;52.006;5.924;2023-04-21T08:41:04;37.75;;;26.85;;
73841;SDS011;62184;52.006;5.924;2023-04-21T08:43:33;38.72;;;26.92;;
73841;SDS011;62184;52.006;5.924;2023-04-21T08:45:59;37.80;;;25.80;;
73841;SDS011;62184;52.006;5.924;2023-04-21T08:48:36;38.33;;;26.92;;
73841;SDS011;62184;52.006;5.924;2023-04-21T08:51:05;35.58;;;25.38;;
73841;SDS011;62184;52.006;5.924;2023-04-21T08:53:33;36.67;;;25.73;;
73841;SDS011;62184;52.006;5.924;2023-04-21T08:55:59;35.28;;;25.67;;
73841;SDS011;62184;52.006;5.924;2023-04-21T08:58:26;35.92;;;25.35;;
73841;SDS011;62184;52.006;5.924;2023-04-21T09:00:52;34.97;;;24.67;;
73841;SDS011;62184;52.006;5.924;2023-04-21T09:03:20;36.17;;;25.35;;
73841;SDS011;62184;52.006;5.924;2023-04-21T09:05:58;33.43;;;25.43;;
73841;SDS011;62184;52.006;5.924;2023-04-21T09:08:26;36.05;;;25.05;;
73841;SDS011;62184;52.006;5.924;2023-04-21T09:10:54;35.25;;;25.40;;
73841;SDS011;62184;52.006;5.924;2023-04-21T09:13:28;33.58;;;23.98;;
73841;SDS011;62184;52.006;5.924;2023-04-21T09:15:58;34.40;;;25.07;;
73841;SDS011;62184;52.006;5.924;2023-04-21T09:18:27;34.50;;;24.77;;
73841;SDS011;62184;52.006;5.924;2023-04-21T09:21:06;35.42;;;25.33;;
73841;SDS011;62184;52.006;5.924;2023-04-21T09:23:38;35.83;;;25.48;;
73841;SDS011;62184;52.006;5.924;2023-04-21T09:26:06;34.67;;;25.47;;
73841;SDS011;62184;52.006;5.924;2023-04-21T09:28:33;36.42;;;25.70;;
73841;SDS011;62184;52.006;5.924;2023-04-21T09:31:00;33.97;;;25.03;;
73841;SDS011;62184;52.006;5.924;2023-04-21T09:33:26;35.83;;;25.90;;
73841;SDS011;62184;52.006;5.924;2023-04-21T09:35:53;35.38;;;24.65;;
73841;SDS011;62184;52.006;5.924;2023-04-21T09:38:23;35.20;;;24.45;;
73841;SDS011;62184;52.006;5.924;2023-04-21T09:40:55;35.50;;;25.63;;
73841;SDS011;62184;52.006;5.924;2023-04-21T09:43:22;33.85;;;25.25;;
73841;SDS011;62184;52.006;5.924;2023-04-21T09:45:48;37.25;;;26.08;;
73841;SDS011;62184;52.006;5.924;2023-04-21T09:48:16;35.50;;;25.40;;
73841;SDS011;62184;52.006;5.924;2023-04-21T09:50:43;34.57;;;25.00;;
73841;SDS011;62184;52.006;5.924;2023-04-21T09:53:13;34.78;;;25.33;;
73841;SDS011;62184;52.006;5.924;2023-04-21T09:55:44;34.08;;;24.58;;
73841;SDS011;62184;52.006;5.924;2023-04-21T09:58:14;34.95;;;24.75;;
73841;SDS011;62184;52.006;5.924;2023-04-21T10:00:47;33.72;;;25.10;;
73841;SDS011;62184;52.006;5.924;2023-04-21T10:03:16;34.95;;;25.15;;
73841;SDS011;62184;52.006;5.924;2023-04-21T10:05:47;34.30;;;24.27;;
73841;SDS011;62184;52.006;5.924;2023-04-21T10:08:14;34.75;;;25.65;;
73841;SDS011;62184;52.006;5.924;2023-04-21T10:10:44;35.73;;;25.33;;
73841;SDS011;62184;52.006;5.924;2023-04-21T10:13:12;35.10;;;25.55;;
73841;SDS011;62184;52.006;5.924;2023-04-21T10:15:39;32.50;;;23.33;;
73841;SDS011;62184;52.006;5.924;2023-04-21T10:18:10;34.90;;;24.97;;
73841;SDS011;62184;52.006;5.924;2023-04-21T10:20:54;34.75;;;25.55;;
73841;SDS011;62184;52.006;5.924;2023-04-21T10:23:29;33.40;;;25.02;;
73841;SDS011;62184;52.006;5.924;2023-04-21T10:26:04;34.25;;;24.67;;
73841;SDS011;62184;52.006;5.924;2023-04-21T10:28:38;32.23;;;23.00;;
73841;SDS011;62184;52.006;5.924;2023-04-21T10:31:19;30.20;;;22.15;;
73841;SDS011;62184;52.006;5.924;2023-04-21T10:39:42;31.90;;;23.35;;
73841;SDS011;62184;52.006;5.924;2023-04-21T10:42:21;30.17;;;22.52;;
73841;SDS011;62184;52.006;5.924;2023-04-21T10:45:00;30.17;;;22.83;;
73841;SDS011;62184;52.006;5.924;2023-04-21T10:47:43;29.65;;;22.95;;
73841;SDS011;62184;52.006;5.924;2023-04-21T10:50:13;29.75;;;23.20;;
73841;SDS011;62184;52.006;5.924;2023-04-21T10:52:43;28.07;;;21.33;;
73841;SDS011;62184;52.006;5.924;2023-04-21T10:55:12;29.20;;;22.17;;
73841;SDS011;62184;52.006;5.924;2023-04-21T10:57:43;28.95;;;22.05;;
73841;SDS011;62184;52.006;5.924;2023-04-21T11:00:10;28.55;;;21.85;;
73841;SDS011;62184;52.006;5.924;2023-04-21T11:02:41;28.75;;;22.08;;
73841;SDS011;62184;52.006;5.924;2023-04-21T11:05:08;30.55;;;22.38;;
73841;SDS011;62184;52.006;5.924;2023-04-21T11:07:35;29.85;;;22.08;;
73841;SDS011;62184;52.006;5.924;2023-04-21T11:10:02;28.83;;;21.23;;
73841;SDS011;62184;52.006;5.924;2023-04-21T11:12:32;28.20;;;20.80;;
73841;SDS011;62184;52.006;5.924;2023-04-21T11:15:06;29.10;;;21.90;;
73841;SDS011;62184;52.006;5.924;2023-04-21T11:17:35;29.05;;;21.58;;
73841;SDS011;62184;52.006;5.924;2023-04-21T11:20:02;29.08;;;21.38;;
73841;SDS011;62184;52.006;5.924;2023-04-21T11:22:31;30.10;;;21.30;;
73841;SDS011;62184;52.006;5.924;2023-04-21T11:24:57;28.00;;;20.45;;
73841;SDS011;62184;52.006;5.924;2023-04-21T11:27:25;29.40;;;21.35;;
73841;SDS011;62184;52.006;5.924;2023-04-21T11:29:53;30.13;;;21.85;;
73841;SDS011;62184;52.006;5.924;2023-04-21T11:32:22;28.27;;;21.47;;
73841;SDS011;62184;52.006;5.924;2023-04-21T11:34:49;29.73;;;21.88;;
73841;SDS011;62184;52.006;5.924;2023-04-21T11:37:21;28.48;;;21.38;;
73841;SDS011;62184;52.006;5.924;2023-04-21T11:39:55;29.20;;;21.90;;
73841;SDS011;62184;52.006;5.924;2023-04-21T11:42:22;29.83;;;21.95;;
73841;SDS011;62184;52.006;5.924;2023-04-21T11:44:48;28.85;;;20.65;;
73841;SDS011;62184;52.006;5.924;2023-04-21T11:47:15;29.67;;;21.48;;
73841;SDS011;62184;52.006;5.924;2023-04-21T11:49:48;30.57;;;22.27;;
73841;SDS011;62184;52.006;5.924;2023-04-21T11:52:25;30.40;;;21.83;;
73841;SDS011;62184;52.006;5.924;2023-04-21T11:54:54;29.63;;;22.33;;
73841;SDS011;62184;52.006;5.924;2023-04-21T11:57:23;29.15;;;21.95;;
73841;SDS011;62184;52.006;5.924;2023-04-21T11:59:51;28.67;;;21.60;;
73841;SDS011;62184;52.006;5.924;2023-04-21T12:02:22;32.45;;;21.88;;
73841;SDS011;62184;52.006;5.924;2023-04-21T12:05:01;30.13;;;21.52;;
73841;SDS011;62184;52.006;5.924;2023-04-21T12:07:30;29.08;;;21.38;;
73841;SDS011;62184;52.006;5.924;2023-04-21T12:09:58;29.38;;;21.58;;
73841;SDS011;62184;52.006;5.924;2023-04-21T12:12:26;30.13;;;21.88;;
73841;SDS011;62184;52.006;5.924;2023-04-21T12:14:53;28.55;;;21.20;;
73841;SDS011;62184;52.006;5.924;2023-04-21T12:17:19;27.93;;;20.57;;
73841;SDS011;62184;52.006;5.924;2023-04-21T12:19:46;29.40;;;21.77;;
73841;SDS011;62184;52.006;5.924;2023-04-21T12:22:15;29.90;;;21.30;;
73841;SDS011;62184;52.006;5.924;2023-04-21T12:24:43;32.03;;;22.63;;
73841;SDS011;62184;52.006;5.924;2023-04-21T12:27:11;29.20;;;22.50;;
73841;SDS011;62184;52.006;5.924;2023-04-21T12:29:38;30.80;;;23.38;;
73841;SDS011;62184;52.006;5.924;2023-04-21T12:32:05;32.30;;;24.23;;
73841;SDS011;62184;52.006;5.924;2023-04-21T12:34:33;29.27;;;21.58;;
73841;SDS011;62184;52.006;5.924;2023-04-21T12:36:59;29.30;;;21.42;;
73841;SDS011;62184;52.006;5.924;2023-04-21T12:39:29;28.13;;;21.25;;
73841;SDS011;62184;52.006;5.924;2023-04-21T12:41:55;29.67;;;21.85;;
73841;SDS011;62184;52.006;5.924;2023-04-21T12:44:22;28.77;;;20.77;;
73841;SDS011;62184;52.006;5.924;2023-04-21T12:46:48;27.87;;;20.17;;
73841;SDS011;62184;52.006;5.924;2023-04-21T12:49:15;28.42;;;20.42;;
73841;SDS011;62184;52.006;5.924;2023-04-21T12:51:41;31.58;;;21.25;;
73841;SDS011;62184;52.006;5.924;2023-04-21T12:54:08;29.63;;;20.65;;
73841;SDS011;62184;52.006;5.924;2023-04-21T12:56:37;27.60;;;20.80;;
73841;SDS011;62184;52.006;5.924;2023-04-21T12:59:04;29.63;;;20.92;;
73841;SDS011;62184;52.006;5.924;2023-04-21T13:01:31;27.95;;;19.73;;
73841;SDS011;62184;52.006;5.924;2023-04-21T13:03:58;23.97;;;16.23;;
73841;SDS011;62184;52.006;5.924;2023-04-21T13:06:24;25.10;;;18.40;;
73841;SDS011;62184;52.006;5.924;2023-04-21T13:08:52;24.73;;;16.75;;
73841;SDS011;62184;52.006;5.924;2023-04-21T13:11:18;24.43;;;16.80;;
73841;SDS011;62184;52.006;5.924;2023-04-21T13:13:47;23.88;;;17.02;;
73841;SDS011;62184;52.006;5.924;2023-04-21T13:16:14;25.02;;;17.80;;
73841;SDS011;62184;52.006;5.924;2023-04-21T13:18:41;22.63;;;17.20;;
73841;SDS011;62184;52.006;5.924;2023-04-21T13:21:07;23.67;;;17.30;;
73841;SDS011;62184;52.006;5.924;2023-04-21T13:23:33;23.77;;;17.25;;
73841;SDS011;62184;52.006;5.924;2023-04-21T13:26:00;23.80;;;17.65;;
73841;SDS011;62184;52.006;5.924;2023-04-21T13:28:26;22.77;;;16.67;;
73841;SDS011;62184;52.006;5.924;2023-04-21T13:30:56;23.42;;;16.85;;
73841;SDS011;62184;52.006;5.924;2023-04-21T13:33:23;23.27;;;17.10;;
73841;SDS011;62184;52.006;5.924;2023-04-21T13:35:50;23.55;;;17.27;;
73841;SDS011;62184;52.006;5.924;2023-04-21T13:38:16;23.85;;;18.13;;
73841;SDS011;62184;52.006;5.924;2023-04-21T13:40:42;23.45;;;17.77;;
73841;SDS011;62184;52.006;5.924;2023-04-21T13:43:09;22.93;;;17.83;;
73841;SDS011;62184;52.006;5.924;2023-04-21T13:45:35;24.70;;;18.70;;
73841;SDS011;62184;52.006;5.924;2023-04-21T13:48:06;24.85;;;17.65;;
73841;SDS011;62184;52.006;5.924;2023-04-21T13:50:32;23.67;;;17.83;;
73841;SDS011;62184;52.006;5.924;2023-04-21T13:52:59;22.25;;;18.00;;
73841;SDS011;62184;52.006;5.924;2023-04-21T13:55:25;24.20;;;18.30;;
73841;SDS011;62184;52.006;5.924;2023-04-21T13:57:51;24.48;;;18.35;;
73841;SDS011;62184;52.006;5.924;2023-04-21T14:00:18;25.45;;;19.60;;
73841;SDS011;62184;52.006;5.924;2023-04-21T14:02:45;24.98;;;19.33;;
73841;SDS011;62184;52.006;5.924;2023-04-21T14:05:14;23.73;;;19.08;;
73841;SDS011;62184;52.006;5.924;2023-04-21T14:07:41;25.77;;;19.02;;
73841;SDS011;62184;52.006;5.924;2023-04-21T14:10:08;23.75;;;18.98;;
73841;SDS011;62184;52.006;5.924;2023-04-21T14:12:35;24.30;;;19.38;;
73841;SDS011;62184;52.006;5.924;2023-04-21T14:15:02;24.88;;;20.10;;
73841;SDS011;62184;52.006;5.924;2023-04-21T14:17:29;24.45;;;19.58;;
73841;SDS011;62184;52.006;5.924;2023-04-21T14:19:57;24.35;;;18.83;;
73841;SDS011;62184;52.006;5.924;2023-04-21T14:22:26;24.55;;;20.17;;
73841;SDS011;62184;52.006;5.924;2023-04-21T14:24:52;25.45;;;19.85;;
73841;SDS011;62184;52.006;5.924;2023-04-21T14:27:18;25.85;;;19.67;;